createdAt,value
2022-11-15T00:00:57.052Z,78.12
2022-11-15T00:03:26.449Z,77.97
2022-11-15T00:05:53.194Z,78.27
2022-11-15T00:08:19.923Z,78.01
2022-11-15T00:11:00.858Z,78.12
2022-11-15T00:13:28.963Z,78.00
2022-11-15T00:15:59.691Z,78.01
2022-11-15T00:18:26.950Z,78.29
2022-11-15T00:20:53.642Z,77.95
2022-11-15T00:23:20.652Z,78.09
2022-11-15T00:25:47.629Z,77.94
2022-11-15T00:28:14.273Z,78.14
2022-11-15T00:30:41.170Z,78.26
2022-11-15T00:33:08.295Z,78.33
2022-11-15T00:35:35.870Z,77.87
2022-11-15T00:38:03.806Z,77.78
2022-11-15T00:40:30.898Z,77.95
2022-11-15T00:42:57.592Z,78.07
2022-11-15T00:45:24.796Z,77.84
2022-11-15T00:47:51.989Z,78.18
2022-11-15T00:50:19.232Z,78.39
2022-11-15T00:52:46.605Z,78.34
2022-11-15T00:55:20.824Z,78.02
2022-11-15T00:57:47.923Z,78.04
2022-11-15T01:00:15.136Z,78.07
2022-11-15T01:02:42.118Z,78.39
2022-11-15T01:05:09.301Z,78.04
2022-11-15T01:07:36.141Z,78.04
2022-11-15T01:10:03.473Z,78.54
2022-11-15T01:12:30.518Z,78.79
2022-11-15T01:14:57.134Z,78.27
2022-11-15T01:17:23.993Z,78.53
2022-11-15T01:19:50.869Z,78.51
2022-11-15T01:22:17.541Z,78.61
2022-11-15T01:24:44.520Z,78.64
2022-11-15T01:27:11.254Z,78.91
2022-11-15T01:29:37.895Z,78.57
2022-11-15T01:32:04.938Z,78.78
2022-11-15T01:34:31.612Z,78.49
2022-11-15T01:36:58.257Z,78.56
2022-11-15T01:39:25.113Z,78.88
2022-11-15T01:41:51.900Z,78.55
2022-11-15T01:44:50.687Z,78.94
2022-11-15T01:47:34.304Z,78.81
2022-11-15T01:50:05.283Z,79.14
2022-11-15T01:52:35.505Z,79.24
2022-11-15T01:55:04.701Z,78.88
2022-11-15T01:57:32.130Z,78.94
2022-11-15T02:00:01.426Z,78.88
2022-11-15T02:02:28.477Z,78.81
2022-11-15T02:04:55.349Z,79.48
2022-11-15T02:07:23.655Z,79.14
2022-11-15T02:09:51.875Z,79.10
2022-11-15T02:12:22.719Z,79.03
2022-11-15T02:14:53.797Z,79.04
2022-11-15T02:17:26.271Z,79.06
2022-11-15T02:20:16.145Z,79.20
2022-11-15T02:23:05.178Z,79.15
2022-11-15T02:25:40.277Z,78.99
2022-11-15T02:28:34.851Z,79.02
2022-11-15T02:31:10.878Z,79.11
2022-11-15T02:34:07.295Z,78.76
2022-11-15T02:36:39.603Z,78.99
2022-11-15T02:39:18.798Z,78.85
2022-11-15T02:41:55.694Z,78.95
2022-11-15T02:44:32.588Z,79.01
2022-11-15T02:47:15.738Z,78.67
2022-11-15T02:49:49.228Z,78.74
2022-11-15T02:52:23.021Z,79.05
2022-11-15T02:54:57.854Z,78.96
2022-11-15T02:57:38.487Z,78.99
2022-11-15T03:00:18.891Z,78.90
2022-11-15T03:02:57.924Z,78.83
2022-11-15T03:05:45.509Z,78.80
2022-11-15T03:08:24.039Z,78.60
2022-11-15T03:11:12.630Z,78.83
2022-11-15T03:13:52.492Z,78.83
2022-11-15T03:16:37.962Z,78.72
2022-11-15T03:19:31.254Z,79.03
2022-11-15T03:22:01.255Z,78.72
2022-11-15T03:24:32.896Z,78.61
2022-11-15T03:27:01.649Z,78.67
2022-11-15T03:29:35.295Z,78.99
2022-11-15T03:32:07.667Z,78.98
2022-11-15T03:34:58.823Z,78.86
2022-11-15T03:37:51.352Z,78.72
2022-11-15T03:40:23.068Z,78.90
2022-11-15T03:43:27.840Z,78.96
2022-11-15T03:46:12.479Z,78.59
2022-11-15T03:48:45.353Z,78.78
2022-11-15T03:51:12.500Z,78.82
2022-11-15T03:53:39.154Z,78.68
2022-11-15T03:56:05.889Z,78.69
2022-11-15T03:58:32.746Z,78.68
2022-11-15T04:01:00.550Z,78.44
2022-11-15T04:03:27.495Z,78.49
2022-11-15T04:05:54.497Z,78.69
2022-11-15T04:08:21.198Z,78.60
2022-11-15T04:10:50.269Z,78.97
2022-11-15T04:13:17.053Z,78.90
2022-11-15T04:15:43.749Z,78.82
2022-11-15T04:18:10.416Z,78.60
2022-11-15T04:20:56.330Z,78.62
2022-11-15T04:23:42.789Z,78.55
2022-11-15T04:26:16.142Z,78.54
2022-11-15T04:29:01.627Z,78.54
2022-11-15T04:31:29.068Z,78.58
2022-11-15T04:33:55.736Z,78.80
2022-11-15T04:36:42.248Z,78.59
2022-11-15T04:39:09.247Z,78.39
2022-11-15T04:41:35.930Z,78.61
2022-11-15T04:44:02.556Z,78.55
2022-11-15T04:46:29.441Z,78.61
2022-11-15T04:48:58.913Z,78.88
2022-11-15T04:51:26.571Z,78.88
2022-11-15T04:53:53.354Z,78.65
2022-11-15T04:56:20.456Z,79.03
2022-11-15T04:58:50.344Z,78.81
2022-11-15T05:01:17.254Z,78.84
2022-11-15T05:04:03.452Z,78.89
2022-11-15T05:06:31.274Z,79.23
2022-11-15T05:08:58.391Z,79.15
2022-11-15T05:11:25.472Z,78.99
2022-11-15T05:13:52.111Z,78.83
2022-11-15T05:16:18.868Z,78.75
2022-11-15T05:18:45.476Z,79.32
2022-11-15T05:21:15.296Z,79.16
2022-11-15T05:23:42.234Z,79.09
2022-11-15T05:26:10.115Z,79.52
2022-11-15T05:28:37.597Z,79.37
2022-11-15T05:31:09.677Z,79.28
2022-11-15T05:33:40.655Z,79.73
2022-11-15T05:36:42.094Z,79.45
2022-11-15T05:39:09.470Z,79.42
2022-11-15T05:41:47.906Z,79.57
2022-11-15T05:44:19.030Z,79.80
2022-11-15T05:46:46.304Z,79.60
2022-11-15T05:49:17.207Z,79.90
2022-11-15T05:51:45.173Z,79.95
2022-11-15T05:54:12.879Z,79.85
2022-11-15T05:56:40.114Z,79.71
2022-11-15T05:59:08.373Z,79.62
2022-11-15T06:01:35.093Z,79.64
2022-11-15T06:04:02.069Z,79.74
2022-11-15T06:06:29.948Z,80.23
2022-11-15T06:08:56.804Z,80.21
2022-11-15T06:11:23.503Z,80.13
2022-11-15T06:13:50.207Z,80.02
2022-11-15T06:16:16.822Z,80.05
2022-11-15T06:18:44.072Z,80.13
2022-11-15T06:21:10.799Z,79.93
2022-11-15T06:23:37.479Z,79.76
2022-11-15T06:26:04.773Z,79.84
2022-11-15T06:28:33.154Z,79.75
2022-11-15T06:31:08.566Z,79.82
2022-11-15T06:33:35.401Z,79.54
2022-11-15T06:36:07.334Z,79.87
2022-11-15T06:38:34.190Z,79.73
2022-11-15T06:41:08.959Z,79.97
2022-11-15T06:43:36.572Z,79.81
2022-11-15T06:46:04.780Z,80.27
2022-11-15T06:48:32.872Z,79.90
2022-11-15T06:51:01.512Z,80.06
2022-11-15T06:53:29.030Z,79.91
2022-11-15T06:55:59.870Z,79.79
2022-11-15T06:58:26.534Z,79.54
2022-11-15T07:00:53.262Z,79.76
2022-11-15T07:03:19.906Z,79.72
2022-11-15T07:05:57.423Z,79.93
2022-11-15T07:08:28.183Z,79.26
2022-11-15T07:10:55.160Z,79.31
2022-11-15T07:13:26.904Z,79.46
2022-11-15T07:15:53.808Z,79.13
2022-11-15T07:18:20.539Z,79.70
2022-11-15T07:20:47.447Z,79.44
2022-11-15T07:23:14.264Z,79.17
2022-11-15T07:25:40.825Z,79.21
2022-11-15T07:28:07.756Z,79.10
2022-11-15T07:30:34.746Z,79.39
2022-11-15T07:33:01.964Z,79.02
2022-11-15T07:35:30.129Z,79.35
2022-11-15T07:38:01.934Z,79.22
2022-11-15T07:40:30.587Z,79.47
2022-11-15T07:43:06.047Z,79.11
2022-11-15T07:45:36.239Z,79.34
2022-11-15T07:48:02.818Z,79.38
2022-11-15T07:50:31.051Z,79.50
2022-11-15T07:52:59.380Z,79.48
2022-11-15T07:55:28.305Z,79.29
2022-11-15T07:58:01.798Z,79.48
2022-11-15T08:00:28.612Z,79.40
2022-11-15T08:03:13.009Z,79.15
2022-11-15T08:05:41.199Z,79.41
2022-11-15T08:08:09.438Z,79.29
2022-11-15T08:10:40.606Z,78.86
2022-11-15T08:13:10.512Z,79.10
2022-11-15T08:15:38.528Z,79.00
2022-11-15T08:18:07.936Z,79.27
2022-11-15T08:20:35.140Z,79.14
2022-11-15T08:23:03.977Z,79.15
2022-11-15T08:25:33.160Z,79.16
2022-11-15T08:28:06.423Z,79.13
2022-11-15T08:30:38.077Z,78.84
2022-11-15T08:33:05.708Z,78.70
2022-11-15T08:35:32.520Z,78.63
2022-11-15T08:37:59.100Z,78.79
2022-11-15T08:40:25.938Z,78.77
2022-11-15T08:42:52.684Z,78.69
2022-11-15T08:45:19.292Z,78.82
2022-11-15T08:47:49.814Z,78.96
2022-11-15T08:50:20.978Z,78.93
2022-11-15T08:52:49.317Z,78.85
2022-11-15T08:55:17.694Z,78.75
2022-11-15T08:57:44.800Z,78.62
2022-11-15T09:00:13.194Z,78.73
2022-11-15T09:02:41.091Z,78.79
2022-11-15T09:05:08.755Z,78.75
2022-11-15T09:07:35.765Z,78.49
2022-11-15T09:10:02.484Z,78.84
2022-11-15T09:12:29.465Z,78.70
2022-11-15T09:14:56.183Z,79.09
2022-11-15T09:17:24.908Z,79.05
2022-11-15T09:19:52.407Z,78.85
2022-11-15T09:22:19.346Z,78.85
2022-11-15T09:24:45.982Z,78.67
2022-11-15T09:27:13.920Z,78.89
2022-11-15T09:29:40.635Z,78.85
2022-11-15T09:32:07.299Z,78.80
2022-11-15T09:34:34.324Z,79.05
2022-11-15T09:37:01.087Z,78.93
2022-11-15T09:39:27.808Z,78.93
2022-11-15T09:42:32.494Z,78.63
2022-11-15T09:45:27.460Z,78.75
2022-11-15T09:48:12.967Z,78.55
2022-11-15T09:50:51.813Z,78.90
2022-11-15T09:56:30.535Z,78.62
2022-11-15T09:59:03.206Z,78.64
2022-11-15T10:01:39.094Z,78.57
2022-11-15T10:04:10.639Z,78.38
2022-11-15T10:06:46.733Z,78.61
2022-11-15T10:09:44.028Z,78.59
2022-11-15T10:12:13.869Z,78.61
2022-11-15T10:14:40.660Z,78.79
2022-11-15T10:17:35.616Z,78.82
2022-11-15T10:20:22.295Z,78.61
2022-11-15T10:22:52.554Z,78.55
2022-11-15T10:25:31.058Z,78.50
2022-11-15T10:28:14.926Z,78.49
2022-11-15T10:30:44.543Z,78.75
2022-11-15T10:33:18.720Z,78.57
2022-11-15T10:35:45.241Z,78.55
2022-11-15T10:38:13.225Z,78.51
2022-11-15T10:40:41.840Z,78.77
2022-11-15T10:43:11.344Z,78.57
2022-11-15T10:45:39.307Z,78.37
2022-11-15T10:48:15.559Z,78.49
2022-11-15T10:50:47.125Z,78.57
2022-11-15T10:53:24.400Z,78.54
2022-11-15T10:55:54.848Z,78.65
2022-11-15T10:58:38.379Z,78.61
2022-11-15T11:01:20.175Z,78.41
2022-11-15T11:04:05.610Z,78.18
2022-11-15T11:06:51.008Z,78.18
2022-11-15T11:09:30.386Z,77.79
2022-11-15T11:11:57.412Z,77.79
2022-11-15T11:14:32.448Z,77.70
2022-11-15T11:17:17.333Z,77.37
2022-11-15T11:19:44.077Z,77.47
2022-11-15T11:22:21.418Z,77.14
2022-11-15T11:25:22.122Z,77.24
2022-11-15T11:27:54.600Z,77.12
2022-11-15T11:30:39.942Z,77.02
2022-11-15T11:33:17.835Z,76.99
2022-11-15T11:36:21.403Z,76.56
2022-11-15T11:38:56.064Z,76.42
2022-11-15T11:41:43.909Z,76.22
2022-11-15T11:44:16.443Z,75.99
2022-11-15T11:46:53.856Z,76.05
2022-11-15T11:49:30.437Z,75.81
2022-11-15T11:51:57.188Z,75.79
2022-11-15T11:54:45.248Z,75.63
2022-11-15T11:57:26.881Z,75.62
2022-11-15T12:00:02.303Z,75.66
2022-11-15T12:02:42.761Z,75.51
2022-11-15T12:05:30.252Z,75.31
2022-11-15T12:08:05.653Z,75.11
2022-11-15T12:10:34.676Z,74.71
2022-11-15T12:13:17.221Z,74.61
2022-11-15T12:15:48.610Z,74.18
2022-11-15T12:18:17.433Z,73.86
2022-11-15T12:20:56.689Z,73.68
2022-11-15T12:23:40.758Z,73.35
2022-11-15T12:26:18.051Z,73.13
2022-11-15T12:29:06.884Z,72.99
2022-11-15T12:31:39.500Z,73.02
2022-11-15T12:34:21.111Z,72.89
2022-11-15T12:36:49.098Z,72.92
2022-11-15T12:39:17.031Z,72.89
2022-11-15T12:41:45.921Z,72.73
2022-11-15T12:44:32.423Z,72.82
2022-11-15T12:46:59.164Z,72.96
2022-11-15T12:49:28.519Z,72.88
2022-11-15T12:51:58.269Z,73.04
2022-11-15T12:54:24.901Z,73.25
2022-11-15T12:57:10.196Z,73.32
2022-11-15T12:59:51.184Z,73.27
2022-11-15T13:02:44.923Z,73.30
2022-11-15T13:05:19.388Z,73.01
2022-11-15T13:07:46.483Z,73.10
2022-11-15T13:10:13.177Z,73.00
2022-11-15T13:12:41.962Z,72.89
2022-11-15T13:15:14.819Z,72.96
2022-11-15T13:17:45.961Z,73.13
2022-11-15T13:20:19.302Z,72.98
2022-11-15T13:23:11.133Z,72.83
2022-11-15T13:25:41.042Z,72.76
2022-11-15T13:28:17.061Z,72.59
2022-11-15T13:30:52.110Z,72.50
2022-11-15T13:33:45.464Z,72.55
2022-11-15T13:36:22.744Z,72.42
2022-11-15T13:39:04.987Z,72.34
2022-11-15T13:41:34.638Z,72.25
2022-11-15T13:44:02.627Z,72.44
2022-11-15T13:46:31.501Z,72.34
2022-11-15T13:49:01.007Z,72.06
2022-11-15T13:51:27.595Z,72.10
2022-11-15T13:54:08.059Z,72.11
2022-11-15T13:56:35.604Z,72.04
2022-11-15T13:59:21.492Z,72.38
2022-11-15T14:01:48.499Z,72.23
2022-11-15T14:04:21.379Z,72.05
2022-11-15T14:06:54.858Z,72.14
2022-11-15T14:09:41.412Z,72.25
2022-11-15T14:12:28.403Z,72.33
2022-11-15T14:14:55.190Z,72.71
2022-11-15T14:17:47.198Z,72.61
2022-11-15T14:20:36.793Z,72.71
2022-11-15T14:23:29.927Z,72.73
2022-11-15T14:25:58.639Z,72.78
2022-11-15T14:28:25.205Z,72.88
2022-11-15T14:30:57.751Z,72.81
2022-11-15T14:33:33.814Z,72.89
2022-11-15T14:36:18.593Z,72.90
2022-11-15T14:38:45.972Z,72.95
2022-11-15T14:41:24.481Z,72.87
2022-11-15T14:43:52.515Z,72.90
2022-11-15T14:46:19.333Z,73.09
2022-11-15T14:48:46.007Z,73.00
2022-11-15T14:51:19.495Z,72.93
2022-11-15T14:53:47.597Z,73.17
2022-11-15T14:56:15.588Z,73.20
2022-11-15T14:58:42.276Z,73.41
2022-11-15T15:01:23.026Z,73.45
2022-11-15T15:03:49.768Z,73.45
2022-11-15T15:06:18.174Z,73.53
2022-11-15T15:08:46.492Z,73.60
2022-11-15T15:11:22.545Z,73.61
2022-11-15T15:13:49.330Z,73.73
2022-11-15T15:16:15.957Z,73.86
2022-11-15T15:18:42.613Z,73.96
2022-11-15T15:21:18.539Z,74.17
2022-11-15T15:23:45.176Z,73.98
2022-11-15T15:26:11.945Z,73.99
2022-11-15T15:28:40.760Z,74.37
2022-11-15T15:31:09.053Z,74.36
2022-11-15T15:33:35.847Z,74.63
2022-11-15T15:36:03.341Z,74.71
2022-11-15T15:38:30.564Z,74.75
2022-11-15T15:40:57.544Z,74.84
2022-11-15T15:43:24.212Z,75.08
2022-11-15T15:45:51.020Z,75.32
2022-11-15T15:48:18.262Z,75.40
2022-11-15T15:50:45.155Z,75.61
2022-11-15T15:53:13.006Z,75.96
2022-11-15T15:55:40.036Z,76.00
2022-11-15T15:58:07.426Z,76.04
2022-11-15T16:00:34.775Z,76.30
2022-11-15T16:03:01.651Z,76.10
2022-11-15T16:05:28.402Z,76.50
2022-11-15T16:07:55.626Z,76.39
2022-11-15T16:10:22.647Z,76.60
2022-11-15T16:12:49.772Z,76.41
2022-11-15T16:15:16.535Z,76.59
2022-11-15T16:17:49.463Z,76.37
2022-11-15T16:20:21.903Z,76.55
2022-11-15T16:22:49.205Z,76.73
2022-11-15T16:25:15.852Z,76.95
2022-11-15T16:27:46.112Z,76.65
2022-11-15T16:30:19.284Z,76.79
2022-11-15T16:32:46.144Z,76.54
2022-11-15T16:35:14.424Z,76.59
2022-11-15T16:37:41.823Z,76.67
2022-11-15T16:40:31.367Z,76.71
2022-11-15T16:42:59.841Z,76.64
2022-11-15T16:45:29.267Z,76.41
2022-11-15T16:47:57.115Z,76.33
2022-11-15T16:50:32.841Z,76.33
2022-11-15T16:53:00.095Z,76.60
2022-11-15T16:55:29.052Z,76.65
2022-11-15T16:57:58.074Z,76.68
2022-11-15T17:00:25.838Z,76.92
2022-11-15T17:02:53.677Z,76.78
2022-11-15T17:05:22.856Z,76.97
2022-11-15T17:07:52.431Z,77.16
2022-11-15T17:10:19.923Z,76.89
2022-11-15T17:12:47.009Z,77.05
2022-11-15T17:15:14.790Z,77.02
2022-11-15T17:17:42.247Z,77.10
2022-11-15T17:20:17.639Z,77.11
2022-11-15T17:22:45.278Z,77.05
2022-11-15T17:25:12.013Z,77.02
2022-11-15T17:27:38.795Z,76.80
2022-11-15T17:30:06.352Z,76.88
2022-11-15T17:32:35.348Z,76.95
2022-11-15T17:35:02.199Z,77.00
2022-11-15T17:37:28.983Z,76.81
2022-11-15T17:39:55.543Z,77.14
2022-11-15T17:42:22.264Z,76.82
2022-11-15T17:44:48.927Z,77.14
2022-11-15T17:47:15.604Z,76.97
2022-11-15T17:49:43.328Z,76.96
2022-11-15T17:52:10.323Z,76.88
2022-11-15T17:54:36.966Z,77.20
2022-11-15T17:57:04.076Z,77.11
2022-11-15T17:59:30.775Z,77.03
2022-11-15T18:01:57.403Z,77.16
2022-11-15T18:04:28.448Z,77.04
2022-11-15T18:06:56.522Z,77.08
2022-11-15T18:09:23.395Z,77.05
2022-11-15T18:11:51.914Z,76.82
2022-11-15T18:14:19.517Z,76.83
2022-11-15T18:16:46.667Z,77.13
2022-11-15T18:19:13.986Z,76.88
2022-11-15T18:21:59.254Z,76.77
2022-11-15T18:24:29.743Z,77.20
2022-11-15T18:26:56.992Z,77.15
2022-11-15T18:29:24.704Z,77.11
2022-11-15T18:31:56.030Z,76.95
2022-11-15T18:34:24.646Z,77.71
2022-11-15T18:36:52.634Z,77.26
2022-11-15T18:39:19.416Z,77.72
2022-11-15T18:41:46.911Z,77.46
2022-11-15T18:44:13.991Z,77.53
2022-11-15T18:46:42.397Z,77.77
2022-11-15T18:49:10.788Z,77.57
2022-11-15T18:51:41.609Z,77.40
2022-11-15T18:54:10.965Z,77.22
2022-11-15T18:56:38.390Z,77.48
2022-11-15T18:59:06.241Z,77.32
2022-11-15T19:01:36.139Z,77.18
2022-11-15T19:04:17.701Z,77.31
2022-11-15T19:06:46.848Z,77.17
2022-11-15T19:09:16.302Z,77.28
2022-11-15T19:11:44.551Z,77.26
2022-11-15T19:14:16.578Z,77.15
2022-11-15T19:16:52.324Z,77.28
2022-11-15T19:19:25.250Z,77.21
2022-11-15T19:21:52.875Z,77.49
2022-11-15T19:24:20.069Z,77.45
2022-11-15T19:26:47.228Z,77.44
2022-11-15T19:29:18.243Z,77.39
2022-11-15T19:31:45.908Z,77.31
2022-11-15T19:34:13.082Z,77.29
2022-11-15T19:36:44.431Z,77.44
2022-11-15T19:39:13.431Z,77.58
2022-11-15T19:41:42.614Z,77.43
2022-11-15T19:44:10.864Z,77.14
2022-11-15T19:46:38.544Z,77.45
2022-11-15T19:49:07.936Z,77.62
2022-11-15T19:51:34.587Z,77.25
2022-11-15T19:54:06.830Z,77.22
2022-11-15T19:56:34.866Z,77.19
2022-11-15T19:59:03.349Z,77.08
2022-11-15T20:01:33.098Z,77.25
2022-11-15T20:04:00.892Z,77.27
2022-11-15T20:06:31.451Z,77.54
2022-11-15T20:08:58.936Z,77.44
2022-11-15T20:11:26.227Z,77.33
2022-11-15T20:14:02.378Z,77.48
2022-11-15T20:16:30.012Z,77.60
2022-11-15T20:18:57.428Z,77.80
2022-11-15T20:21:24.876Z,77.68
2022-11-15T20:23:52.019Z,77.80
2022-11-15T20:26:20.143Z,78.30
2022-11-15T20:28:48.337Z,78.12
2022-11-15T20:31:15.878Z,77.96
2022-11-15T20:33:42.691Z,78.46
2022-11-15T20:36:15.672Z,78.17
2022-11-15T20:38:43.425Z,78.64
2022-11-15T20:41:10.868Z,78.47
2022-11-15T20:43:37.705Z,78.65
2022-11-15T20:46:04.804Z,78.85
2022-11-15T20:48:31.941Z,78.85
2022-11-15T20:51:25.173Z,78.61
2022-11-15T20:53:51.904Z,78.18
2022-11-15T20:56:21.187Z,78.18
2022-11-15T20:58:50.433Z,78.49
2022-11-15T21:01:23.521Z,78.36
2022-11-15T21:03:55.152Z,78.29
2022-11-15T21:06:23.189Z,78.35
2022-11-15T21:09:10.556Z,78.22
2022-11-15T21:11:56.036Z,77.90
2022-11-15T21:14:23.027Z,78.12
2022-11-15T21:16:49.931Z,78.29
2022-11-15T21:19:16.828Z,78.13
2022-11-15T21:21:43.724Z,78.33
2022-11-15T21:24:10.483Z,78.17
2022-11-15T21:26:37.759Z,78.24
2022-11-15T21:29:05.113Z,78.00
2022-11-15T21:31:32.105Z,77.93
2022-11-15T21:34:01.448Z,78.02
2022-11-15T21:36:28.269Z,77.96
2022-11-15T21:38:54.841Z,78.12
2022-11-15T21:41:21.508Z,77.78
2022-11-15T21:43:48.473Z,77.84
2022-11-15T21:46:15.297Z,77.69
2022-11-15T21:48:42.419Z,77.98
2022-11-15T21:51:12.105Z,77.83
2022-11-15T21:53:38.676Z,78.02
2022-11-15T21:56:06.766Z,78.08
2022-11-15T21:58:34.002Z,78.10
2022-11-15T22:01:20.180Z,77.83
2022-11-15T22:03:47.315Z,78.17
2022-11-15T22:06:17.836Z,78.20
2022-11-15T22:08:45.754Z,78.12
2022-11-15T22:11:13.437Z,78.08
2022-11-15T22:13:40.596Z,77.98
2022-11-15T22:16:08.381Z,77.91
2022-11-15T22:18:35.551Z,77.84
2022-11-15T22:21:11.134Z,77.83
2022-11-15T22:23:38.979Z,78.06
2022-11-15T22:26:06.743Z,77.96
2022-11-15T22:28:33.780Z,77.58
2022-11-15T22:31:00.789Z,77.77
2022-11-15T22:33:30.074Z,77.82
2022-11-15T22:35:57.637Z,77.96
2022-11-15T22:38:25.139Z,77.66
2022-11-15T22:40:52.084Z,78.03
2022-11-15T22:43:20.453Z,78.09
2022-11-15T22:45:52.145Z,78.10
2022-11-15T22:48:34.064Z,77.92
2022-11-15T22:51:01.690Z,77.97
2022-11-15T22:53:29.396Z,78.18
2022-11-15T22:56:01.416Z,78.20
2022-11-15T22:58:30.935Z,77.81
2022-11-15T23:01:00.977Z,77.97
2022-11-15T23:03:28.907Z,77.92
2022-11-15T23:06:00.700Z,77.96
2022-11-15T23:08:27.520Z,78.12
2022-11-15T23:11:12.792Z,77.74
2022-11-15T23:13:39.438Z,78.13
2022-11-15T23:16:24.025Z,78.11
2022-11-15T23:18:53.297Z,77.85
2022-11-15T23:21:41.965Z,77.83
2022-11-15T23:24:11.127Z,77.88
2022-11-15T23:26:38.788Z,78.07
2022-11-15T23:29:08.640Z,77.73
2022-11-15T23:32:01.690Z,78.23
2022-11-15T23:34:35.862Z,77.91
2022-11-15T23:37:02.509Z,77.96
2022-11-15T23:39:29.279Z,77.89
2022-11-15T23:41:56.553Z,77.51
2022-11-15T23:44:24.098Z,77.67
2022-11-15T23:46:50.967Z,78.07
2022-11-15T23:49:17.886Z,77.96
2022-11-15T23:51:44.697Z,77.76
2022-11-15T23:54:11.772Z,77.94
2022-11-15T23:56:38.759Z,77.96
2022-11-15T23:59:06.182Z,78.22
